sensor_id;sensor_type;location;lat;lon;timestamp;temperature;humidity
18894;DHT22;9579;49.488;8.226;2023-07-31T00:01:14;21.10;97.20
18894;DHT22;9579;49.488;8.226;2023-07-31T00:04:02;21.10;96.90
18894;DHT22;9579;49.488;8.226;2023-07-31T00:06:49;21.10;96.60
18894;DHT22;9579;49.488;8.226;2023-07-31T00:09:36;21.10;96.40
18894;DHT22;9579;49.488;8.226;2023-07-31T00:12:24;21.10;97.30
18894;DHT22;9579;49.488;8.226;2023-07-31T00:15:11;21.10;96.90
18894;DHT22;9579;49.488;8.226;2023-07-31T00:18:00;21.00;97.30
18894;DHT22;9579;49.488;8.226;2023-07-31T00:20:47;21.10;97.60
18894;DHT22;9579;49.488;8.226;2023-07-31T00:23:34;21.10;97.90
18894;DHT22;9579;49.488;8.226;2023-07-31T00:26:21;21.10;97.50
18894;DHT22;9579;49.488;8.226;2023-07-31T00:29:08;21.10;98.30
18894;DHT22;9579;49.488;8.226;2023-07-31T00:31:55;21.20;97.60
18894;DHT22;9579;49.488;8.226;2023-07-31T00:34:44;21.20;97.30
18894;DHT22;9579;49.488;8.226;2023-07-31T00:37:31;21.20;97.20
18894;DHT22;9579;49.488;8.226;2023-07-31T00:40:18;21.00;96.60
18894;DHT22;9579;49.488;8.226;2023-07-31T00:43:05;21.10;97.50
18894;DHT22;9579;49.488;8.226;2023-07-31T00:45:52;21.00;97.60
18894;DHT22;9579;49.488;8.226;2023-07-31T00:48:39;21.00;97.40
18894;DHT22;9579;49.488;8.226;2023-07-31T00:51:28;20.90;97.90
18894;DHT22;9579;49.488;8.226;2023-07-31T00:54:15;21.00;97.50
18894;DHT22;9579;49.488;8.226;2023-07-31T00:57:02;21.00;98.00
18894;DHT22;9579;49.488;8.226;2023-07-31T00:59:49;21.00;97.70
18894;DHT22;9579;49.488;8.226;2023-07-31T01:02:37;21.00;98.00
18894;DHT22;9579;49.488;8.226;2023-07-31T01:05:31;21.00;98.50
18894;DHT22;9579;49.488;8.226;2023-07-31T01:08:26;21.00;98.40
18894;DHT22;9579;49.488;8.226;2023-07-31T01:11:16;21.00;98.20
18894;DHT22;9579;49.488;8.226;2023-07-31T01:14:04;21.00;98.50
18894;DHT22;9579;49.488;8.226;2023-07-31T01:16:52;20.90;97.90
18894;DHT22;9579;49.488;8.226;2023-07-31T01:19:39;20.90;98.50
18894;DHT22;9579;49.488;8.226;2023-07-31T01:22:37;20.90;98.50
18894;DHT22;9579;49.488;8.226;2023-07-31T01:25:48;20.90;98.40
18894;DHT22;9579;49.488;8.226;2023-07-31T01:28:45;20.90;98.60
18894;DHT22;9579;49.488;8.226;2023-07-31T01:31:34;21.00;98.90
18894;DHT22;9579;49.488;8.226;2023-07-31T01:34:23;21.00;98.80
18894;DHT22;9579;49.488;8.226;2023-07-31T01:37:11;21.00;98.70
18894;DHT22;9579;49.488;8.226;2023-07-31T01:39:58;21.00;98.90
18894;DHT22;9579;49.488;8.226;2023-07-31T01:42:46;20.90;98.70
18894;DHT22;9579;49.488;8.226;2023-07-31T01:45:33;21.00;98.70
18894;DHT22;9579;49.488;8.226;2023-07-31T01:48:20;20.90;98.80
18894;DHT22;9579;49.488;8.226;2023-07-31T01:51:07;20.90;98.80
18894;DHT22;9579;49.488;8.226;2023-07-31T01:53:54;20.90;98.80
18894;DHT22;9579;49.488;8.226;2023-07-31T01:56:41;20.90;99.50
18894;DHT22;9579;49.488;8.226;2023-07-31T01:59:30;20.70;98.60
18894;DHT22;9579;49.488;8.226;2023-07-31T02:02:17;20.60;98.80
18894;DHT22;9579;49.488;8.226;2023-07-31T02:05:04;20.60;99.50
18894;DHT22;9579;49.488;8.226;2023-07-31T02:07:51;20.60;99.20
18894;DHT22;9579;49.488;8.226;2023-07-31T02:10:38;20.60;99.50
18894;DHT22;9579;49.488;8.226;2023-07-31T02:13:25;20.70;99.90
18894;DHT22;9579;49.488;8.226;2023-07-31T02:16:14;20.80;99.40
18894;DHT22;9579;49.488;8.226;2023-07-31T02:19:01;20.90;99.70
18894;DHT22;9579;49.488;8.226;2023-07-31T02:21:48;20.90;99.60
18894;DHT22;9579;49.488;8.226;2023-07-31T02:24:35;20.90;99.00
18894;DHT22;9579;49.488;8.226;2023-07-31T02:27:22;20.90;99.10
18894;DHT22;9579;49.488;8.226;2023-07-31T02:30:12;21.00;99.10
18894;DHT22;9579;49.488;8.226;2023-07-31T02:33:01;20.90;99.70
18894;DHT22;9579;49.488;8.226;2023-07-31T02:35:48;21.00;99.60
18894;DHT22;9579;49.488;8.226;2023-07-31T02:38:35;20.90;99.70
18894;DHT22;9579;49.488;8.226;2023-07-31T02:41:22;20.90;99.30
18894;DHT22;9579;49.488;8.226;2023-07-31T02:44:09;20.70;99.20
18894;DHT22;9579;49.488;8.226;2023-07-31T02:46:56;20.50;99.80
18894;DHT22;9579;49.488;8.226;2023-07-31T02:49:44;20.50;99.60
18894;DHT22;9579;49.488;8.226;2023-07-31T02:52:31;20.40;99.90
18894;DHT22;9579;49.488;8.226;2023-07-31T02:55:18;20.40;99.90
18894;DHT22;9579;49.488;8.226;2023-07-31T02:58:05;20.40;99.90
18894;DHT22;9579;49.488;8.226;2023-07-31T03:00:52;20.50;99.90
18894;DHT22;9579;49.488;8.226;2023-07-31T03:03:41;20.50;99.90
18894;DHT22;9579;49.488;8.226;2023-07-31T03:06:29;20.50;99.90
18894;DHT22;9579;49.488;8.226;2023-07-31T03:09:16;20.50;99.90
18894;DHT22;9579;49.488;8.226;2023-07-31T03:12:03;20.50;99.80
18894;DHT22;9579;49.488;8.226;2023-07-31T03:14:50;20.60;99.80
18894;DHT22;9579;49.488;8.226;2023-07-31T03:17:37;20.50;99.30
18894;DHT22;9579;49.488;8.226;2023-07-31T03:20:25;20.50;99.90
18894;DHT22;9579;49.488;8.226;2023-07-31T03:23:14;20.50;99.90
18894;DHT22;9579;49.488;8.226;2023-07-31T03:26:02;20.50;99.50
18894;DHT22;9579;49.488;8.226;2023-07-31T03:28:50;20.50;99.80
18894;DHT22;9579;49.488;8.226;2023-07-31T03:31:37;20.50;99.60
18894;DHT22;9579;49.488;8.226;2023-07-31T03:34:24;20.50;99.90
18894;DHT22;9579;49.488;8.226;2023-07-31T03:37:11;20.50;99.90
18894;DHT22;9579;49.488;8.226;2023-07-31T03:39:59;20.50;99.80
18894;DHT22;9579;49.488;8.226;2023-07-31T03:42:46;20.50;99.90
18894;DHT22;9579;49.488;8.226;2023-07-31T03:45:33;20.50;99.90
18894;DHT22;9579;49.488;8.226;2023-07-31T03:48:20;20.50;99.90
18894;DHT22;9579;49.488;8.226;2023-07-31T03:51:07;20.50;99.90
18894;DHT22;9579;49.488;8.226;2023-07-31T03:53:54;20.50;99.90
18894;DHT22;9579;49.488;8.226;2023-07-31T03:56:43;20.60;99.90
18894;DHT22;9579;49.488;8.226;2023-07-31T03:59:30;20.60;99.90
18894;DHT22;9579;49.488;8.226;2023-07-31T04:02:17;20.60;99.90
18894;DHT22;9579;49.488;8.226;2023-07-31T04:05:04;20.60;99.90
18894;DHT22;9579;49.488;8.226;2023-07-31T04:07:51;20.60;99.90
18894;DHT22;9579;49.488;8.226;2023-07-31T04:10:38;20.60;99.90
18894;DHT22;9579;49.488;8.226;2023-07-31T04:13:28;20.60;99.90
18894;DHT22;9579;49.488;8.226;2023-07-31T04:16:15;20.60;99.90
18894;DHT22;9579;49.488;8.226;2023-07-31T04:19:03;20.50;99.90
18894;DHT22;9579;49.488;8.226;2023-07-31T04:21:50;20.50;99.90
18894;DHT22;9579;49.488;8.226;2023-07-31T04:24:37;20.60;99.90
18894;DHT22;9579;49.488;8.226;2023-07-31T04:27:25;20.50;99.90
18894;DHT22;9579;49.488;8.226;2023-07-31T04:30:13;20.50;99.90
18894;DHT22;9579;49.488;8.226;2023-07-31T04:33:00;20.50;99.90
18894;DHT22;9579;49.488;8.226;2023-07-31T04:35:51;20.50;99.90
18894;DHT22;9579;49.488;8.226;2023-07-31T04:38:38;20.60;99.90
18894;DHT22;9579;49.488;8.226;2023-07-31T04:41:26;21.00;99.90
18894;DHT22;9579;49.488;8.226;2023-07-31T04:44:14;20.70;99.90
18894;DHT22;9579;49.488;8.226;2023-07-31T04:47:02;20.70;99.90
18894;DHT22;9579;49.488;8.226;2023-07-31T04:49:49;20.80;99.90
18894;DHT22;9579;49.488;8.226;2023-07-31T04:52:36;20.80;99.90
18894;DHT22;9579;49.488;8.226;2023-07-31T04:55:23;20.90;99.90
18894;DHT22;9579;49.488;8.226;2023-07-31T04:58:10;20.80;99.90
18894;DHT22;9579;49.488;8.226;2023-07-31T05:00:58;20.90;99.90
18894;DHT22;9579;49.488;8.226;2023-07-31T05:03:46;21.00;99.90
18894;DHT22;9579;49.488;8.226;2023-07-31T05:06:33;20.80;99.90
18894;DHT22;9579;49.488;8.226;2023-07-31T05:09:20;20.90;99.90
18894;DHT22;9579;49.488;8.226;2023-07-31T05:12:08;20.90;99.90
18894;DHT22;9579;49.488;8.226;2023-07-31T05:14:55;20.60;99.90
18894;DHT22;9579;49.488;8.226;2023-07-31T05:17:42;20.70;99.90
18894;DHT22;9579;49.488;8.226;2023-07-31T05:20:30;20.90;99.90
18894;DHT22;9579;49.488;8.226;2023-07-31T05:23:17;21.00;99.90
18894;DHT22;9579;49.488;8.226;2023-07-31T05:26:04;21.10;99.90
18894;DHT22;9579;49.488;8.226;2023-07-31T05:28:51;21.10;99.90
18894;DHT22;9579;49.488;8.226;2023-07-31T05:31:38;21.20;99.90
18894;DHT22;9579;49.488;8.226;2023-07-31T05:34:25;21.20;99.90
18894;DHT22;9579;49.488;8.226;2023-07-31T05:37:14;21.30;99.90
18894;DHT22;9579;49.488;8.226;2023-07-31T05:40:01;21.20;99.80
18894;DHT22;9579;49.488;8.226;2023-07-31T05:42:48;21.30;99.70
18894;DHT22;9579;49.488;8.226;2023-07-31T05:45:35;21.10;99.60
18894;DHT22;9579;49.488;8.226;2023-07-31T05:48:22;21.20;99.90
18894;DHT22;9579;49.488;8.226;2023-07-31T05:51:09;21.20;99.90
18894;DHT22;9579;49.488;8.226;2023-07-31T05:53:58;21.30;99.90
18894;DHT22;9579;49.488;8.226;2023-07-31T05:56:45;21.40;99.90
18894;DHT22;9579;49.488;8.226;2023-07-31T05:59:32;21.40;99.90
18894;DHT22;9579;49.488;8.226;2023-07-31T06:02:19;21.40;99.90
18894;DHT22;9579;49.488;8.226;2023-07-31T06:05:06;21.40;99.80
18894;DHT22;9579;49.488;8.226;2023-07-31T06:07:54;21.40;99.90
18894;DHT22;9579;49.488;8.226;2023-07-31T06:10:42;21.30;99.80
18894;DHT22;9579;49.488;8.226;2023-07-31T06:13:29;21.50;99.90
18894;DHT22;9579;49.488;8.226;2023-07-31T06:16:16;21.50;99.90
18894;DHT22;9579;49.488;8.226;2023-07-31T06:19:03;21.30;99.10
18894;DHT22;9579;49.488;8.226;2023-07-31T06:21:50;21.00;99.70
18894;DHT22;9579;49.488;8.226;2023-07-31T06:24:37;20.90;99.90
18894;DHT22;9579;49.488;8.226;2023-07-31T06:27:26;20.90;99.70
18894;DHT22;9579;49.488;8.226;2023-07-31T06:30:13;21.00;99.90
18894;DHT22;9579;49.488;8.226;2023-07-31T06:33:00;20.90;99.90
18894;DHT22;9579;49.488;8.226;2023-07-31T06:35:47;20.80;99.90
18894;DHT22;9579;49.488;8.226;2023-07-31T06:38:34;20.90;99.90
18894;DHT22;9579;49.488;8.226;2023-07-31T06:41:23;21.00;99.90
18894;DHT22;9579;49.488;8.226;2023-07-31T06:44:11;21.10;99.90
18894;DHT22;9579;49.488;8.226;2023-07-31T06:46:59;21.60;99.90
18894;DHT22;9579;49.488;8.226;2023-07-31T06:49:46;21.20;99.90
18894;DHT22;9579;49.488;8.226;2023-07-31T06:52:33;21.30;99.90
18894;DHT22;9579;49.488;8.226;2023-07-31T06:55:21;22.30;99.90
18894;DHT22;9579;49.488;8.226;2023-07-31T06:58:08;22.00;99.90
18894;DHT22;9579;49.488;8.226;2023-07-31T07:00:57;22.40;99.80
18894;DHT22;9579;49.488;8.226;2023-07-31T07:03:44;22.70;98.80
18894;DHT22;9579;49.488;8.226;2023-07-31T07:06:31;22.90;98.50
18894;DHT22;9579;49.488;8.226;2023-07-31T07:09:18;22.90;99.00
18894;DHT22;9579;49.488;8.226;2023-07-31T07:12:06;23.00;98.30
18894;DHT22;9579;49.488;8.226;2023-07-31T07:14:54;23.30;98.40
18894;DHT22;9579;49.488;8.226;2023-07-31T07:17:42;23.40;97.40
18894;DHT22;9579;49.488;8.226;2023-07-31T07:20:29;23.60;97.30
18894;DHT22;9579;49.488;8.226;2023-07-31T07:23:16;23.40;97.50
18894;DHT22;9579;49.488;8.226;2023-07-31T07:26:05;23.40;97.80
18894;DHT22;9579;49.488;8.226;2023-07-31T07:28:52;23.30;97.50
18894;DHT22;9579;49.488;8.226;2023-07-31T07:31:39;23.10;98.20
18894;DHT22;9579;49.488;8.226;2023-07-31T07:34:28;23.20;97.90
18894;DHT22;9579;49.488;8.226;2023-07-31T07:37:15;23.50;98.60
18894;DHT22;9579;49.488;8.226;2023-07-31T07:40:03;23.80;97.90
18894;DHT22;9579;49.488;8.226;2023-07-31T07:42:50;24.00;97.30
18894;DHT22;9579;49.488;8.226;2023-07-31T07:45:37;24.00;97.10
18894;DHT22;9579;49.488;8.226;2023-07-31T07:48:24;24.50;97.30
18894;DHT22;9579;49.488;8.226;2023-07-31T07:51:13;24.70;96.70
18894;DHT22;9579;49.488;8.226;2023-07-31T07:54:00;24.80;94.90
18894;DHT22;9579;49.488;8.226;2023-07-31T07:56:47;24.70;94.60
18894;DHT22;9579;49.488;8.226;2023-07-31T07:59:35;24.40;95.30
18894;DHT22;9579;49.488;8.226;2023-07-31T08:02:22;25.40;95.60
18894;DHT22;9579;49.488;8.226;2023-07-31T08:05:09;24.20;94.50
18894;DHT22;9579;49.488;8.226;2023-07-31T08:07:58;24.20;95.50
18894;DHT22;9579;49.488;8.226;2023-07-31T08:10:45;25.60;95.90
18894;DHT22;9579;49.488;8.226;2023-07-31T08:13:32;24.50;94.80
18894;DHT22;9579;49.488;8.226;2023-07-31T08:16:19;24.60;95.70
18894;DHT22;9579;49.488;8.226;2023-07-31T08:19:06;24.70;95.20
18894;DHT22;9579;49.488;8.226;2023-07-31T08:21:53;24.70;94.80
18894;DHT22;9579;49.488;8.226;2023-07-31T08:24:41;24.70;95.20
18894;DHT22;9579;49.488;8.226;2023-07-31T08:27:28;24.70;95.20
18894;DHT22;9579;49.488;8.226;2023-07-31T08:30:15;24.90;94.70
18894;DHT22;9579;49.488;8.226;2023-07-31T08:33:02;25.20;94.50
18894;DHT22;9579;49.488;8.226;2023-07-31T08:35:50;25.50;94.20
18894;DHT22;9579;49.488;8.226;2023-07-31T08:38:37;25.80;93.60
18894;DHT22;9579;49.488;8.226;2023-07-31T08:41:25;25.70;93.00
18894;DHT22;9579;49.488;8.226;2023-07-31T08:44:14;25.60;93.30
18894;DHT22;9579;49.488;8.226;2023-07-31T08:47:02;25.60;93.00
18894;DHT22;9579;49.488;8.226;2023-07-31T08:49:50;25.60;93.40
18894;DHT22;9579;49.488;8.226;2023-07-31T08:52:38;25.70;94.30
18894;DHT22;9579;49.488;8.226;2023-07-31T08:55:25;26.40;93.30
18894;DHT22;9579;49.488;8.226;2023-07-31T08:58:15;25.80;92.60
18894;DHT22;9579;49.488;8.226;2023-07-31T09:01:04;25.80;93.10
18894;DHT22;9579;49.488;8.226;2023-07-31T09:03:51;26.10;92.90
18894;DHT22;9579;49.488;8.226;2023-07-31T09:06:39;25.40;93.20
18894;DHT22;9579;49.488;8.226;2023-07-31T09:09:27;25.10;93.60
18894;DHT22;9579;49.488;8.226;2023-07-31T09:12:14;25.00;93.70
18894;DHT22;9579;49.488;8.226;2023-07-31T09:15:03;25.20;93.90
18894;DHT22;9579;49.488;8.226;2023-07-31T09:17:59;25.30;93.70
18894;DHT22;9579;49.488;8.226;2023-07-31T09:20:46;25.70;93.20
18894;DHT22;9579;49.488;8.226;2023-07-31T09:23:47;25.90;93.20
18894;DHT22;9579;49.488;8.226;2023-07-31T09:26:35;25.90;92.70
18894;DHT22;9579;49.488;8.226;2023-07-31T09:29:23;25.90;92.40
18894;DHT22;9579;49.488;8.226;2023-07-31T09:32:17;25.80;93.10
18894;DHT22;9579;49.488;8.226;2023-07-31T09:35:19;26.10;93.50
18894;DHT22;9579;49.488;8.226;2023-07-31T09:38:07;26.40;92.90
18894;DHT22;9579;49.488;8.226;2023-07-31T09:40:55;26.60;92.10
18894;DHT22;9579;49.488;8.226;2023-07-31T09:43:53;26.70;91.80
18894;DHT22;9579;49.488;8.226;2023-07-31T09:46:40;26.60;91.70
18894;DHT22;9579;49.488;8.226;2023-07-31T09:49:29;26.70;91.40
18894;DHT22;9579;49.488;8.226;2023-07-31T09:52:16;26.60;91.30
18894;DHT22;9579;49.488;8.226;2023-07-31T09:55:03;26.60;91.20
18894;DHT22;9579;49.488;8.226;2023-07-31T09:57:51;26.10;91.10
18894;DHT22;9579;49.488;8.226;2023-07-31T10:00:38;25.60;90.90
18894;DHT22;9579;49.488;8.226;2023-07-31T10:03:26;25.40;91.20
18894;DHT22;9579;49.488;8.226;2023-07-31T10:06:16;25.00;91.60
18894;DHT22;9579;49.488;8.226;2023-07-31T10:09:07;24.70;92.20
18894;DHT22;9579;49.488;8.226;2023-07-31T10:11:59;24.50;92.30
18894;DHT22;9579;49.488;8.226;2023-07-31T10:14:47;24.30;92.70
18894;DHT22;9579;49.488;8.226;2023-07-31T10:17:35;24.40;92.90
18894;DHT22;9579;49.488;8.226;2023-07-31T10:20:23;24.40;92.70
18894;DHT22;9579;49.488;8.226;2023-07-31T10:23:12;24.60;93.30
18894;DHT22;9579;49.488;8.226;2023-07-31T10:26:00;24.60;92.90
18894;DHT22;9579;49.488;8.226;2023-07-31T10:28:48;24.60;92.70
18894;DHT22;9579;49.488;8.226;2023-07-31T10:31:37;24.90;92.50
18894;DHT22;9579;49.488;8.226;2023-07-31T10:34:25;24.30;92.10
18894;DHT22;9579;49.488;8.226;2023-07-31T10:37:23;24.20;92.50
18894;DHT22;9579;49.488;8.226;2023-07-31T10:40:15;24.20;93.00
18894;DHT22;9579;49.488;8.226;2023-07-31T10:43:03;24.50;93.60
18894;DHT22;9579;49.488;8.226;2023-07-31T10:45:50;24.70;93.00
18894;DHT22;9579;49.488;8.226;2023-07-31T10:48:40;24.60;93.10
18894;DHT22;9579;49.488;8.226;2023-07-31T10:51:34;24.30;93.30
18894;DHT22;9579;49.488;8.226;2023-07-31T10:54:24;24.30;93.60
18894;DHT22;9579;49.488;8.226;2023-07-31T10:57:21;24.50;93.50
18894;DHT22;9579;49.488;8.226;2023-07-31T11:00:18;24.70;93.00
18894;DHT22;9579;49.488;8.226;2023-07-31T11:03:07;25.00;92.80
18894;DHT22;9579;49.488;8.226;2023-07-31T11:06:00;24.70;92.80
18894;DHT22;9579;49.488;8.226;2023-07-31T11:08:50;24.70;92.80
18894;DHT22;9579;49.488;8.226;2023-07-31T11:11:37;24.60;93.40
18894;DHT22;9579;49.488;8.226;2023-07-31T11:14:26;24.70;93.50
18894;DHT22;9579;49.488;8.226;2023-07-31T11:17:13;24.70;93.70
18894;DHT22;9579;49.488;8.226;2023-07-31T11:20:00;24.80;93.10
18894;DHT22;9579;49.488;8.226;2023-07-31T11:22:47;24.60;92.90
18894;DHT22;9579;49.488;8.226;2023-07-31T11:25:35;24.40;93.10
18894;DHT22;9579;49.488;8.226;2023-07-31T11:28:23;24.50;93.60
18894;DHT22;9579;49.488;8.226;2023-07-31T11:31:12;24.30;93.70
18894;DHT22;9579;49.488;8.226;2023-07-31T11:34:05;24.20;93.40
18894;DHT22;9579;49.488;8.226;2023-07-31T11:36:55;24.30;93.90
18894;DHT22;9579;49.488;8.226;2023-07-31T11:39:42;24.30;93.20
18894;DHT22;9579;49.488;8.226;2023-07-31T11:42:29;24.50;93.30
18894;DHT22;9579;49.488;8.226;2023-07-31T11:45:16;24.50;93.20
18894;DHT22;9579;49.488;8.226;2023-07-31T11:48:05;24.50;93.40
18894;DHT22;9579;49.488;8.226;2023-07-31T11:50:53;24.50;93.90
18894;DHT22;9579;49.488;8.226;2023-07-31T11:53:42;24.60;93.60
18894;DHT22;9579;49.488;8.226;2023-07-31T11:56:30;24.60;93.20
18894;DHT22;9579;49.488;8.226;2023-07-31T11:59:17;24.70;93.40
18894;DHT22;9579;49.488;8.226;2023-07-31T12:02:05;24.80;93.10
18894;DHT22;9579;49.488;8.226;2023-07-31T12:04:54;24.70;92.90
18894;DHT22;9579;49.488;8.226;2023-07-31T12:07:45;24.70;92.90
18894;DHT22;9579;49.488;8.226;2023-07-31T12:10:32;24.80;93.00
18894;DHT22;9579;49.488;8.226;2023-07-31T12:13:21;24.60;93.00
18894;DHT22;9579;49.488;8.226;2023-07-31T12:16:08;24.50;93.90
18894;DHT22;9579;49.488;8.226;2023-07-31T12:18:55;24.70;94.00
18894;DHT22;9579;49.488;8.226;2023-07-31T12:21:44;25.20;93.70
18894;DHT22;9579;49.488;8.226;2023-07-31T12:24:31;25.70;93.00
18894;DHT22;9579;49.488;8.226;2023-07-31T12:27:20;25.40;92.20
18894;DHT22;9579;49.488;8.226;2023-07-31T12:30:28;25.50;92.30
18894;DHT22;9579;49.488;8.226;2023-07-31T12:33:15;25.60;92.50
18894;DHT22;9579;49.488;8.226;2023-07-31T12:36:04;25.60;92.30
18894;DHT22;9579;49.488;8.226;2023-07-31T12:38:55;25.80;92.80
18894;DHT22;9579;49.488;8.226;2023-07-31T12:41:43;26.20;92.00
18894;DHT22;9579;49.488;8.226;2023-07-31T12:44:30;26.40;91.70
18894;DHT22;9579;49.488;8.226;2023-07-31T12:47:17;26.60;91.60
18894;DHT22;9579;49.488;8.226;2023-07-31T12:50:05;26.70;91.90
18894;DHT22;9579;49.488;8.226;2023-07-31T12:52:53;26.80;91.40
18894;DHT22;9579;49.488;8.226;2023-07-31T12:55:42;26.40;92.20
18894;DHT22;9579;49.488;8.226;2023-07-31T12:58:29;26.30;91.30
18894;DHT22;9579;49.488;8.226;2023-07-31T13:01:16;26.00;92.20
18894;DHT22;9579;49.488;8.226;2023-07-31T13:04:03;25.90;92.00
18894;DHT22;9579;49.488;8.226;2023-07-31T13:06:51;25.60;92.80
18894;DHT22;9579;49.488;8.226;2023-07-31T13:09:38;25.70;93.10
18894;DHT22;9579;49.488;8.226;2023-07-31T13:12:26;25.40;92.40
18894;DHT22;9579;49.488;8.226;2023-07-31T13:15:14;25.10;93.40
18894;DHT22;9579;49.488;8.226;2023-07-31T13:18:01;24.80;93.70
18894;DHT22;9579;49.488;8.226;2023-07-31T13:20:48;24.80;93.80
18894;DHT22;9579;49.488;8.226;2023-07-31T13:23:35;25.00;94.40
18894;DHT22;9579;49.488;8.226;2023-07-31T13:26:22;25.00;94.20
18894;DHT22;9579;49.488;8.226;2023-07-31T13:29:10;25.30;93.80
18894;DHT22;9579;49.488;8.226;2023-07-31T13:31:57;25.50;93.50
18894;DHT22;9579;49.488;8.226;2023-07-31T13:34:44;25.40;93.20
18894;DHT22;9579;49.488;8.226;2023-07-31T13:37:31;25.10;93.50
18894;DHT22;9579;49.488;8.226;2023-07-31T13:40:18;25.00;93.60
18894;DHT22;9579;49.488;8.226;2023-07-31T13:43:05;24.80;93.60
18894;DHT22;9579;49.488;8.226;2023-07-31T13:45:54;24.70;94.10
18894;DHT22;9579;49.488;8.226;2023-07-31T13:48:41;24.70;94.10
18894;DHT22;9579;49.488;8.226;2023-07-31T13:51:28;24.70;93.90
18894;DHT22;9579;49.488;8.226;2023-07-31T13:54:15;24.20;94.30
18894;DHT22;9579;49.488;8.226;2023-07-31T13:57:02;24.30;94.80
18894;DHT22;9579;49.488;8.226;2023-07-31T13:59:49;24.50;94.70
18894;DHT22;9579;49.488;8.226;2023-07-31T14:02:38;24.40;94.80
18894;DHT22;9579;49.488;8.226;2023-07-31T14:05:25;24.30;95.10
18894;DHT22;9579;49.488;8.226;2023-07-31T14:08:12;24.40;94.90
18894;DHT22;9579;49.488;8.226;2023-07-31T14:10:59;24.50;94.80
18894;DHT22;9579;49.488;8.226;2023-07-31T14:13:46;24.70;94.50
18894;DHT22;9579;49.488;8.226;2023-07-31T14:16:33;24.50;94.50
18894;DHT22;9579;49.488;8.226;2023-07-31T14:19:21;24.70;94.00
18894;DHT22;9579;49.488;8.226;2023-07-31T14:22:08;24.60;93.10
18894;DHT22;9579;49.488;8.226;2023-07-31T14:24:55;24.30;94.20
18894;DHT22;9579;49.488;8.226;2023-07-31T14:27:42;24.20;94.00
18894;DHT22;9579;49.488;8.226;2023-07-31T14:30:30;24.20;94.00
18894;DHT22;9579;49.488;8.226;2023-07-31T14:33:17;24.30;94.20
18894;DHT22;9579;49.488;8.226;2023-07-31T14:36:05;24.50;94.20
18894;DHT22;9579;49.488;8.226;2023-07-31T14:38:52;24.80;94.10
18894;DHT22;9579;49.488;8.226;2023-07-31T14:41:39;25.00;93.50
18894;DHT22;9579;49.488;8.226;2023-07-31T14:44:26;25.10;94.20
18894;DHT22;9579;49.488;8.226;2023-07-31T14:47:13;25.20;93.80
18894;DHT22;9579;49.488;8.226;2023-07-31T14:50:01;25.40;93.20
18894;DHT22;9579;49.488;8.226;2023-07-31T14:52:49;25.60;93.20
18894;DHT22;9579;49.488;8.226;2023-07-31T14:55:36;25.70;92.80
18894;DHT22;9579;49.488;8.226;2023-07-31T14:58:23;25.80;92.10
18894;DHT22;9579;49.488;8.226;2023-07-31T15:01:10;25.80;93.20
18894;DHT22;9579;49.488;8.226;2023-07-31T15:03:58;25.80;92.90
18894;DHT22;9579;49.488;8.226;2023-07-31T15:06:45;25.80;92.40
18894;DHT22;9579;49.488;8.226;2023-07-31T15:09:34;25.60;92.70
18894;DHT22;9579;49.488;8.226;2023-07-31T15:12:21;25.40;93.30
18894;DHT22;9579;49.488;8.226;2023-07-31T15:15:08;25.60;93.30
18894;DHT22;9579;49.488;8.226;2023-07-31T15:17:55;25.50;93.10
18894;DHT22;9579;49.488;8.226;2023-07-31T15:20:43;25.10;92.80
18894;DHT22;9579;49.488;8.226;2023-07-31T15:23:30;25.10;93.30
18894;DHT22;9579;49.488;8.226;2023-07-31T15:26:18;25.30;92.90
18894;DHT22;9579;49.488;8.226;2023-07-31T15:29:05;25.30;93.20
18894;DHT22;9579;49.488;8.226;2023-07-31T15:31:57;25.40;93.10
18894;DHT22;9579;49.488;8.226;2023-07-31T15:34:44;25.30;93.00
18894;DHT22;9579;49.488;8.226;2023-07-31T15:37:31;25.30;93.20
18894;DHT22;9579;49.488;8.226;2023-07-31T15:40:18;25.30;93.40
18894;DHT22;9579;49.488;8.226;2023-07-31T15:43:06;25.40;93.30
18894;DHT22;9579;49.488;8.226;2023-07-31T15:45:53;25.50;93.60
18894;DHT22;9579;49.488;8.226;2023-07-31T15:48:40;25.60;93.50
18894;DHT22;9579;49.488;8.226;2023-07-31T15:51:27;25.50;93.10
18894;DHT22;9579;49.488;8.226;2023-07-31T15:54:14;25.50;93.40
18894;DHT22;9579;49.488;8.226;2023-07-31T15:57:01;25.40;93.60
18894;DHT22;9579;49.488;8.226;2023-07-31T15:59:49;25.40;94.20
18894;DHT22;9579;49.488;8.226;2023-07-31T16:02:36;25.10;94.40
18894;DHT22;9579;49.488;8.226;2023-07-31T16:05:24;25.00;96.10
18894;DHT22;9579;49.488;8.226;2023-07-31T16:08:11;24.90;96.50
18894;DHT22;9579;49.488;8.226;2023-07-31T16:10:58;24.60;98.80
18894;DHT22;9579;49.488;8.226;2023-07-31T16:13:44;24.60;98.70
18894;DHT22;9579;49.488;8.226;2023-07-31T16:16:33;24.70;99.00
18894;DHT22;9579;49.488;8.226;2023-07-31T16:19:20;24.70;98.30
18894;DHT22;9579;49.488;8.226;2023-07-31T16:22:07;24.60;98.90
18894;DHT22;9579;49.488;8.226;2023-07-31T16:24:54;24.60;99.90
18894;DHT22;9579;49.488;8.226;2023-07-31T16:27:41;24.50;99.90
18894;DHT22;9579;49.488;8.226;2023-07-31T16:30:28;24.50;99.90
18894;DHT22;9579;49.488;8.226;2023-07-31T16:33:16;24.40;99.70
18894;DHT22;9579;49.488;8.226;2023-07-31T16:36:03;24.50;99.90
18894;DHT22;9579;49.488;8.226;2023-07-31T16:38:50;24.40;99.90
18894;DHT22;9579;49.488;8.226;2023-07-31T16:41:38;24.40;99.90
18894;DHT22;9579;49.488;8.226;2023-07-31T16:44:25;24.40;99.90
18894;DHT22;9579;49.488;8.226;2023-07-31T16:47:12;24.30;99.90
18894;DHT22;9579;49.488;8.226;2023-07-31T16:50:00;24.30;99.90
18894;DHT22;9579;49.488;8.226;2023-07-31T16:52:47;25.90;99.90
18894;DHT22;9579;49.488;8.226;2023-07-31T16:55:34;24.20;99.90
18894;DHT22;9579;49.488;8.226;2023-07-31T16:58:22;24.10;99.90
18894;DHT22;9579;49.488;8.226;2023-07-31T17:01:09;24.00;99.90
18894;DHT22;9579;49.488;8.226;2023-07-31T17:03:56;23.80;99.90
18894;DHT22;9579;49.488;8.226;2023-07-31T17:06:46;23.60;99.90
18894;DHT22;9579;49.488;8.226;2023-07-31T17:09:33;23.40;99.90
18894;DHT22;9579;49.488;8.226;2023-07-31T17:12:20;23.30;99.90
18894;DHT22;9579;49.488;8.226;2023-07-31T17:15:08;23.20;99.90
18894;DHT22;9579;49.488;8.226;2023-07-31T17:17:55;23.00;99.90
18894;DHT22;9579;49.488;8.226;2023-07-31T17:20:44;22.70;99.90
18894;DHT22;9579;49.488;8.226;2023-07-31T17:23:32;22.70;99.90
18894;DHT22;9579;49.488;8.226;2023-07-31T17:26:19;22.50;99.90
18894;DHT22;9579;49.488;8.226;2023-07-31T17:29:06;22.30;99.90
18894;DHT22;9579;49.488;8.226;2023-07-31T17:31:53;22.20;99.90
18894;DHT22;9579;49.488;8.226;2023-07-31T17:34:40;22.20;99.90
18894;DHT22;9579;49.488;8.226;2023-07-31T17:37:28;22.20;99.90
18894;DHT22;9579;49.488;8.226;2023-07-31T17:40:17;21.90;99.90
18894;DHT22;9579;49.488;8.226;2023-07-31T17:43:04;22.00;99.90
18894;DHT22;9579;49.488;8.226;2023-07-31T17:45:51;22.00;99.90
18894;DHT22;9579;49.488;8.226;2023-07-31T17:48:38;22.00;99.90
18894;DHT22;9579;49.488;8.226;2023-07-31T17:51:25;21.90;99.90
18894;DHT22;9579;49.488;8.226;2023-07-31T17:54:12;22.10;99.90
18894;DHT22;9579;49.488;8.226;2023-07-31T17:57:01;22.10;99.90